Time;durP1;ratioP1;P1;durP2;ratioP2;P2;SDS_P1;SDS_P2;PMS_P1;PMS_P2;Temp;Humidity;BMP_temperature;BMP_pressure;BME280_temperature;BME280_humidity;BME280_pressure;Samples;Min_cycle;Max_cycle;Signal;HPM_P1;HPM_P2
2022/03/03 00:01:16;;;;;;;27.15;19.42;;;;;;;;;;5077907;28;20479;-67
2022/03/03 00:03:41;;;;;;;24.98;18.80;;;;;;;;;;5078590;28;20074;-67
2022/03/03 00:06:07;;;;;;;27.20;17.70;;;;;;;;;;5079035;28;20043;-67
2022/03/03 00:08:33;;;;;;;22.70;18.38;;;;;;;;;;5076376;28;20036;-68
2022/03/03 00:10:58;;;;;;;24.70;18.15;;;;;;;;;;5079807;28;20047;-67
2022/03/03 00:13:24;;;;;;;27.67;18.25;;;;;;;;;;5081122;28;20425;-67
2022/03/03 00:15:49;;;;;;;20.75;17.92;;;;;;;;;;5079394;28;20038;-67
2022/03/03 00:18:15;;;;;;;18.13;16.17;;;;;;;;;;5076446;28;20035;-67
2022/03/03 00:20:41;;;;;;;27.92;19.52;;;;;;;;;;5077895;28;20036;-67
2022/03/03 00:23:06;;;;;;;24.15;19.70;;;;;;;;;;5077787;28;20040;-67
2022/03/03 00:25:33;;;;;;;26.48;19.42;;;;;;;;;;5072750;28;20040;-67
2022/03/03 00:27:58;;;;;;;24.73;19.17;;;;;;;;;;5079631;28;20394;-67
2022/03/03 00:30:24;;;;;;;30.17;20.55;;;;;;;;;;5076849;28;20486;-67
2022/03/03 00:32:50;;;;;;;25.00;20.52;;;;;;;;;;5077453;28;20083;-67
2022/03/03 00:35:15;;;;;;;26.60;19.67;;;;;;;;;;5072706;28;20037;-67
2022/03/03 00:37:41;;;;;;;31.38;22.33;;;;;;;;;;5077702;28;20556;-67
2022/03/03 00:40:07;;;;;;;30.83;20.65;;;;;;;;;;5078492;28;20036;-67
2022/03/03 00:42:33;;;;;;;26.23;19.52;;;;;;;;;;5079423;28;20644;-67
2022/03/03 00:44:58;;;;;;;25.42;19.20;;;;;;;;;;5074116;28;20065;-68
2022/03/03 00:47:24;;;;;;;26.55;19.75;;;;;;;;;;5071754;28;20486;-67
2022/03/03 00:49:50;;;;;;;17.00;15.15;;;;;;;;;;5071527;28;20024;-67
2022/03/03 00:52:16;;;;;;;28.77;19.95;;;;;;;;;;5073876;28;20114;-67
2022/03/03 00:54:41;;;;;;;26.73;19.80;;;;;;;;;;5077925;28;20173;-67
2022/03/03 00:57:07;;;;;;;26.38;19.52;;;;;;;;;;5080426;28;20040;-67
2022/03/03 00:59:33;;;;;;;28.88;20.42;;;;;;;;;;5081314;28;20024;-67
2022/03/03 01:01:58;;;;;;;27.92;20.33;;;;;;;;;;5074552;28;20045;-68
2022/03/03 01:04:24;;;;;;;33.13;20.88;;;;;;;;;;5076969;28;20135;-67
2022/03/03 01:06:50;;;;;;;25.25;20.17;;;;;;;;;;5080367;28;20529;-67
2022/03/03 01:09:15;;;;;;;30.35;21.52;;;;;;;;;;5074425;28;20033;-67
2022/03/03 01:11:41;;;;;;;29.42;20.50;;;;;;;;;;5067602;28;20048;-67
2022/03/03 01:14:07;;;;;;;30.55;22.48;;;;;;;;;;5070597;28;20093;-67
2022/03/03 01:16:32;;;;;;;29.77;20.40;;;;;;;;;;5073541;28;20047;-67
2022/03/03 01:18:59;;;;;;;33.75;21.45;;;;;;;;;;5080028;28;20068;-68
2022/03/03 01:21:25;;;;;;;30.77;20.90;;;;;;;;;;5068712;28;20047;-67
2022/03/03 01:23:51;;;;;;;27.27;21.02;;;;;;;;;;5068659;28;20101;-67
2022/03/03 01:26:17;;;;;;;28.15;20.98;;;;;;;;;;5077210;28;20224;-67
2022/03/03 01:28:43;;;;;;;29.67;21.85;;;;;;;;;;5072297;28;20113;-67
2022/03/03 01:31:08;;;;;;;31.20;21.10;;;;;;;;;;5069780;28;20036;-67
2022/03/03 01:33:34;;;;;;;32.80;20.48;;;;;;;;;;5083107;28;20040;-67
2022/03/03 01:36:00;;;;;;;30.48;20.02;;;;;;;;;;5078366;28;20470;-67
2022/03/03 01:38:25;;;;;;;31.55;21.42;;;;;;;;;;5068156;28;20032;-67
2022/03/03 01:40:51;;;;;;;29.33;20.98;;;;;;;;;;5073266;28;20040;-67
2022/03/03 01:43:16;;;;;;;31.67;21.73;;;;;;;;;;5076183;28;20063;-67
2022/03/03 01:45:42;;;;;;;30.85;20.85;;;;;;;;;;5075998;28;20033;-67
2022/03/03 01:48:08;;;;;;;24.92;20.00;;;;;;;;;;5068870;28;20041;-67
2022/03/03 01:50:33;;;;;;;25.45;19.45;;;;;;;;;;5072809;28;20041;-67
2022/03/03 01:52:59;;;;;;;23.73;18.00;;;;;;;;;;5080195;28;20485;-67
2022/03/03 01:55:25;;;;;;;24.35;19.73;;;;;;;;;;5076125;28;20045;-67
2022/03/03 01:57:51;;;;;;;28.55;19.63;;;;;;;;;;5071147;28;20048;-67
2022/03/03 02:00:18;;;;;;;26.83;19.90;;;;;;;;;;5067381;28;20029;-67
2022/03/03 02:02:45;;;;;;;25.75;19.65;;;;;;;;;;5076519;28;20082;-67
2022/03/03 02:05:11;;;;;;;33.03;20.55;;;;;;;;;;5064213;22;20128;-69
2022/03/03 02:07:36;;;;;;;24.05;18.85;;;;;;;;;;5050009;28;20479;-68
2022/03/03 02:10:04;;;;;;;28.58;19.33;;;;;;;;;;5047219;28;20059;-68
2022/03/03 02:12:29;;;;;;;26.80;19.95;;;;;;;;;;5029374;28;20032;-68
2022/03/03 02:14:55;;;;;;;26.80;18.60;;;;;;;;;;5047002;28;20048;-69
2022/03/03 02:17:21;;;;;;;32.55;21.42;;;;;;;;;;5050127;28;20090;-69
2022/03/03 02:19:47;;;;;;;24.80;18.20;;;;;;;;;;5052104;28;20039;-69
2022/03/03 02:22:13;;;;;;;20.90;16.08;;;;;;;;;;5044871;28;20068;-69
2022/03/03 02:24:39;;;;;;;30.55;21.27;;;;;;;;;;5052955;28;20036;-69
2022/03/03 02:27:06;;;;;;;27.08;19.25;;;;;;;;;;5048567;28;20049;-68
2022/03/03 02:29:33;;;;;;;28.75;19.60;;;;;;;;;;5046757;28;20040;-69
2022/03/03 02:32:00;;;;;;;29.08;20.98;;;;;;;;;;5027942;28;20316;-69
2022/03/03 02:34:26;;;;;;;29.63;20.45;;;;;;;;;;5032292;28;20396;-68
2022/03/03 02:36:51;;;;;;;27.13;20.52;;;;;;;;;;5048949;28;20051;-69
2022/03/03 02:39:17;;;;;;;29.80;19.55;;;;;;;;;;5046715;28;20590;-69
2022/03/03 02:41:43;;;;;;;27.48;20.27;;;;;;;;;;5044759;28;20040;-69
2022/03/03 02:44:09;;;;;;;29.92;20.75;;;;;;;;;;5050191;28;20124;-69
2022/03/03 02:46:35;;;;;;;30.98;19.35;;;;;;;;;;5050375;28;20035;-69
2022/03/03 02:49:00;;;;;;;23.73;18.15;;;;;;;;;;5049845;28;20033;-68
2022/03/03 02:51:27;;;;;;;26.50;20.63;;;;;;;;;;5047890;28;20048;-67
2022/03/03 02:53:52;;;;;;;32.53;21.95;;;;;;;;;;5050033;28;20036;-68
2022/03/03 02:56:18;;;;;;;27.33;19.95;;;;;;;;;;5049503;28;20395;-69
2022/03/03 02:58:44;;;;;;;29.33;22.42;;;;;;;;;;5050237;28;20025;-69
2022/03/03 03:01:10;;;;;;;31.70;23.35;;;;;;;;;;5051869;28;20093;-69
2022/03/03 03:03:36;;;;;;;29.05;21.77;;;;;;;;;;5051767;28;20080;-70
2022/03/03 03:06:02;;;;;;;29.80;21.40;;;;;;;;;;5049192;28;20514;-69
2022/03/03 03:08:27;;;;;;;27.58;21.20;;;;;;;;;;5049722;28;20115;-69
2022/03/03 03:10:54;;;;;;;29.60;20.73;;;;;;;;;;5058215;28;20024;-68
2022/03/03 03:13:19;;;;;;;30.27;21.02;;;;;;;;;;5049995;28;20098;-69
2022/03/03 03:15:45;;;;;;;30.33;20.42;;;;;;;;;;5049303;28;20503;-69
2022/03/03 03:18:14;;;;;;;31.73;20.85;;;;;;;;;;5050128;28;20032;-69
2022/03/03 03:20:43;;;;;;;35.67;19.48;;;;;;;;;;5047214;28;20025;-68
2022/03/03 03:23:10;;;;;;;24.63;19.67;;;;;;;;;;5049739;28;20061;-69
2022/03/03 03:25:43;;;;;;;23.83;19.08;;;;;;;;;;5048615;28;20403;-68
2022/03/03 03:28:09;;;;;;;29.05;19.90;;;;;;;;;;5049369;28;20045;-69
2022/03/03 03:30:35;;;;;;;32.03;21.50;;;;;;;;;;5032251;28;20114;-69
2022/03/03 03:33:01;;;;;;;26.73;19.83;;;;;;;;;;5053072;28;20072;-71
2022/03/03 03:35:26;;;;;;;27.75;20.17;;;;;;;;;;5048961;28;20121;-68
2022/03/03 03:37:52;;;;;;;30.00;20.33;;;;;;;;;;5042291;28;20025;-69
2022/03/03 03:40:18;;;;;;;25.83;18.85;;;;;;;;;;5048933;28;20040;-68
2022/03/03 03:42:44;;;;;;;29.88;21.08;;;;;;;;;;5048168;28;20044;-67
2022/03/03 03:45:10;;;;;;;30.02;21.00;;;;;;;;;;5040928;28;20476;-69
2022/03/03 03:47:37;;;;;;;29.63;20.23;;;;;;;;;;5055184;28;20029;-71
2022/03/03 03:50:05;;;;;;;28.77;20.73;;;;;;;;;;5049086;28;20464;-72
2022/03/03 03:52:31;;;;;;;25.88;19.75;;;;;;;;;;5046581;28;20032;-70
2022/03/03 03:54:58;;;;;;;25.02;19.52;;;;;;;;;;5046615;28;20040;-70
2022/03/03 03:57:23;;;;;;;21.73;17.40;;;;;;;;;;5049266;28;20036;-71
2022/03/03 03:59:49;;;;;;;29.45;18.35;;;;;;;;;;5049207;28;20033;-71
2022/03/03 04:02:15;;;;;;;16.67;15.05;;;;;;;;;;5049128;28;20047;-70
2022/03/03 04:04:40;;;;;;;26.52;18.73;;;;;;;;;;5047719;28;20446;-70
2022/03/03 04:07:06;;;;;;;32.60;19.70;;;;;;;;;;5048683;28;20633;-70
2022/03/03 04:09:32;;;;;;;27.15;19.65;;;;;;;;;;5046176;28;20025;-70
2022/03/03 04:11:57;;;;;;;27.48;19.77;;;;;;;;;;5054636;28;20115;-69
2022/03/03 04:14:23;;;;;;;18.00;16.00;;;;;;;;;;5048869;28;20086;-70
2022/03/03 04:16:48;;;;;;;19.23;15.75;;;;;;;;;;5048377;28;20033;-69
2022/03/03 04:19:14;;;;;;;20.48;15.52;;;;;;;;;;5047186;28;20040;-70
2022/03/03 04:21:41;;;;;;;29.20;18.73;;;;;;;;;;5051171;28;20434;-69
2022/03/03 04:24:07;;;;;;;16.90;15.05;;;;;;;;;;5049038;28;20047;-69
2022/03/03 04:26:34;;;;;;;25.15;18.35;;;;;;;;;;5048856;28;20037;-69
2022/03/03 04:29:00;;;;;;;32.03;22.67;;;;;;;;;;5046625;28;20129;-69
2022/03/03 04:31:25;;;;;;;29.42;20.25;;;;;;;;;;5050618;28;20094;-69
2022/03/03 04:33:51;;;;;;;31.73;19.52;;;;;;;;;;5048636;28;20036;-70
2022/03/03 04:36:17;;;;;;;26.33;19.75;;;;;;;;;;5048458;28;20417;-70
2022/03/03 04:38:45;;;;;;;23.48;17.95;;;;;;;;;;5058131;28;20033;-70
2022/03/03 04:41:11;;;;;;;13.00;11.93;;;;;;;;;;5049298;28;20507;-69
2022/03/03 04:43:37;;;;;;;28.48;20.65;;;;;;;;;;5048689;28;20368;-69
2022/03/03 04:46:02;;;;;;;33.88;20.48;;;;;;;;;;5050348;28;20044;-69
2022/03/03 04:48:31;;;;;;;26.48;20.55;;;;;;;;;;5052448;28;20112;-69
2022/03/03 04:50:57;;;;;;;30.30;20.80;;;;;;;;;;5049513;28;20068;-68
2022/03/03 04:53:24;;;;;;;27.13;19.25;;;;;;;;;;5043995;28;20029;-70
2022/03/03 04:55:49;;;;;;;27.00;19.85;;;;;;;;;;5040123;28;20051;-70
2022/03/03 04:58:15;;;;;;;23.80;18.73;;;;;;;;;;5049595;28;20037;-69
2022/03/03 05:00:40;;;;;;;17.73;15.85;;;;;;;;;;5046461;28;20052;-68
2022/03/03 05:03:06;;;;;;;21.95;18.67;;;;;;;;;;5052263;28;20593;-70
2022/03/03 05:05:32;;;;;;;26.88;20.27;;;;;;;;;;5047365;28;20181;-70
2022/03/03 05:07:57;;;;;;;28.27;20.63;;;;;;;;;;5048249;28;20065;-70
2022/03/03 05:10:23;;;;;;;27.17;20.95;;;;;;;;;;5052935;28;20098;-69
2022/03/03 05:12:49;;;;;;;25.38;19.63;;;;;;;;;;5048003;28;20028;-70
2022/03/03 05:15:14;;;;;;;30.77;20.95;;;;;;;;;;5048325;28;20041;-70
2022/03/03 05:17:40;;;;;;;31.15;18.50;;;;;;;;;;5047818;28;20127;-70
2022/03/03 05:20:06;;;;;;;28.20;20.63;;;;;;;;;;5048446;28;20040;-69
2022/03/03 05:22:32;;;;;;;27.95;20.25;;;;;;;;;;5049310;28;20084;-69
2022/03/03 05:24:57;;;;;;;36.53;23.05;;;;;;;;;;5047556;28;20073;-70
2022/03/03 05:27:23;;;;;;;29.70;20.95;;;;;;;;;;5046600;28;20075;-70
2022/03/03 05:29:48;;;;;;;23.88;19.25;;;;;;;;;;5052258;28;20115;-71
2022/03/03 05:32:14;;;;;;;31.67;24.08;;;;;;;;;;5047614;28;20094;-69
2022/03/03 05:34:40;;;;;;;29.33;19.45;;;;;;;;;;5047282;28;20515;-69
2022/03/03 05:37:06;;;;;;;26.08;18.42;;;;;;;;;;5050983;28;20040;-71
2022/03/03 05:39:32;;;;;;;22.05;19.27;;;;;;;;;;5048467;28;20496;-70
2022/03/03 05:41:58;;;;;;;26.23;19.63;;;;;;;;;;5030210;28;20102;-70
2022/03/03 05:44:24;;;;;;;27.88;17.98;;;;;;;;;;5039166;28;20049;-70
2022/03/03 05:46:50;;;;;;;31.55;21.17;;;;;;;;;;5050911;28;20369;-70
2022/03/03 05:49:19;;;;;;;27.08;19.67;;;;;;;;;;5045787;28;20029;-69
2022/03/03 05:51:45;;;;;;;35.87;21.83;;;;;;;;;;5015980;28;20041;-71
2022/03/03 05:54:11;;;;;;;27.95;21.15;;;;;;;;;;5047614;28;20615;-71
2022/03/03 05:56:45;;;;;;;32.65;21.80;;;;;;;;;;5053531;28;20561;-70
2022/03/03 05:59:13;;;;;;;29.02;21.65;;;;;;;;;;5042558;28;20300;-72
2022/03/03 06:01:42;;;;;;;36.17;22.77;;;;;;;;;;5050395;28;20411;-71
2022/03/03 06:04:13;;;;;;;32.03;22.70;;;;;;;;;;5047933;28;20082;-71
2022/03/03 06:06:49;;;;;;;38.10;24.13;;;;;;;;;;5047284;28;20029;-69
2022/03/03 06:09:17;;;;;;;33.53;23.98;;;;;;;;;;5042859;28;20131;-71
2022/03/03 06:11:49;;;;;;;39.00;23.83;;;;;;;;;;5047178;28;20068;-70
2022/03/03 06:14:20;;;;;;;45.38;24.23;;;;;;;;;;5047358;28;20037;-71
2022/03/03 06:16:48;;;;;;;30.58;22.83;;;;;;;;;;5046024;28;20041;-69
2022/03/03 06:19:14;;;;;;;30.67;21.52;;;;;;;;;;5055956;28;20287;-70
2022/03/03 06:21:39;;;;;;;35.67;21.95;;;;;;;;;;5051296;28;20179;-68
2022/03/03 06:24:05;;;;;;;30.52;22.88;;;;;;;;;;5052160;28;20040;-71
2022/03/03 06:26:31;;;;;;;29.48;22.10;;;;;;;;;;5053255;28;20036;-70
2022/03/03 06:28:58;;;;;;;30.85;21.65;;;;;;;;;;5060092;28;20041;-71
2022/03/03 06:31:25;;;;;;;30.67;21.77;;;;;;;;;;5051912;28;20083;-71
2022/03/03 06:33:51;;;;;;;35.55;23.15;;;;;;;;;;5047424;28;20028;-71
2022/03/03 06:36:17;;;;;;;25.60;20.25;;;;;;;;;;5051062;28;20033;-71
2022/03/03 06:38:42;;;;;;;28.98;21.15;;;;;;;;;;5051268;28;20033;-69
2022/03/03 06:41:08;;;;;;;30.25;21.17;;;;;;;;;;5051853;28;20479;-70
2022/03/03 06:43:35;;;;;;;33.55;21.98;;;;;;;;;;5056513;28;20040;-71
2022/03/03 06:46:02;;;;;;;29.92;20.35;;;;;;;;;;5056309;28;20075;-70
2022/03/03 06:48:28;;;;;;;34.80;22.10;;;;;;;;;;5064151;28;20063;-71
2022/03/03 06:50:55;;;;;;;48.35;29.08;;;;;;;;;;5052785;28;20028;-71
2022/03/03 06:53:28;;;;;;;38.55;23.27;;;;;;;;;;5050735;28;20044;-69
2022/03/03 06:56:02;;;;;;;22.65;17.30;;;;;;;;;;5050234;28;20029;-70
2022/03/03 06:58:29;;;;;;;23.23;19.30;;;;;;;;;;5050323;28;20044;-71
2022/03/03 07:00:56;;;;;;;27.10;20.08;;;;;;;;;;5047965;28;20039;-69
2022/03/03 07:03:24;;;;;;;23.20;18.65;;;;;;;;;;5050686;28;20037;-71
2022/03/03 07:05:51;;;;;;;26.65;19.88;;;;;;;;;;5050022;28;20403;-70
2022/03/03 07:08:21;;;;;;;16.80;15.13;;;;;;;;;;5050877;28;20029;-70
2022/03/03 07:10:48;;;;;;;31.08;20.52;;;;;;;;;;5033629;28;20029;-70
2022/03/03 07:13:17;;;;;;;28.70;21.42;;;;;;;;;;5050389;28;20488;-70
2022/03/03 07:15:49;;;;;;;29.85;22.13;;;;;;;;;;5047182;28;20534;-70
2022/03/03 07:18:20;;;;;;;30.25;22.25;;;;;;;;;;5051253;28;20037;-69
2022/03/03 07:20:59;;;;;;;34.38;21.25;;;;;;;;;;5051379;28;20392;-70
2022/03/03 07:23:34;;;;;;;;;;;;;;;;;;5045825;28;20074;-71
2022/03/03 07:26:01;;;;;;;28.10;21.10;;;;;;;;;;5046357;28;19916;-71
2022/03/03 07:28:29;;;;;;;38.28;23.27;;;;;;;;;;5049233;28;20220;-71
2022/03/03 07:30:55;;;;;;;37.92;26.15;;;;;;;;;;5046479;28;20068;-71
2022/03/03 07:33:53;;;;;;;38.15;22.30;;;;;;;;;;5049373;28;20642;-71
2022/03/03 07:36:24;;;;;;;30.50;22.00;;;;;;;;;;5048454;28;20039;-70
2022/03/03 07:38:57;;;;;;;34.70;22.83;;;;;;;;;;5047725;28;20040;-71
2022/03/03 07:41:25;;;;;;;37.17;24.55;;;;;;;;;;5045795;28;20117;-71
2022/03/03 07:43:52;;;;;;;35.38;21.17;;;;;;;;;;5048977;28;20032;-71
2022/03/03 07:46:17;;;;;;;33.40;22.88;;;;;;;;;;5049516;28;20037;-71
2022/03/03 07:48:45;;;;;;;32.03;22.13;;;;;;;;;;5043905;28;20040;-71
2022/03/03 07:51:10;;;;;;;33.88;22.50;;;;;;;;;;5049143;28;20040;-71
2022/03/03 07:53:37;;;;;;;39.58;23.85;;;;;;;;;;5049477;28;20120;-70
2022/03/03 07:56:04;;;;;;;31.73;23.58;;;;;;;;;;5048937;28;20047;-71
2022/03/03 07:58:33;;;;;;;31.95;22.58;;;;;;;;;;5042148;28;20488;-71
2022/03/03 08:01:00;;;;;;;27.00;22.45;;;;;;;;;;5051588;28;20109;-70
2022/03/03 08:03:27;;;;;;;27.60;22.67;;;;;;;;;;5043679;28;20044;-70
2022/03/03 08:05:55;;;;;;;31.05;23.27;;;;;;;;;;5082235;22;20120;-69
2022/03/03 08:08:24;;;;;;;30.40;21.95;;;;;;;;;;5052209;28;20037;-66
2022/03/03 08:10:55;;;;;;;32.33;23.35;;;;;;;;;;5063863;28;20090;-67
2022/03/03 08:13:21;;;;;;;31.15;23.90;;;;;;;;;;5062454;28;20032;-67
2022/03/03 08:15:46;;;;;;;28.83;22.77;;;;;;;;;;5067494;28;20064;-67
2022/03/03 08:18:13;;;;;;;29.58;23.38;;;;;;;;;;5049677;28;20519;-67
2022/03/03 08:20:39;;;;;;;28.73;22.63;;;;;;;;;;5069151;28;20558;-67
2022/03/03 08:23:06;;;;;;;35.35;22.80;;;;;;;;;;5065271;28;20403;-68
2022/03/03 08:25:34;;;;;;;29.23;22.33;;;;;;;;;;5062364;28;20025;-68
2022/03/03 08:28:00;;;;;;;32.53;23.52;;;;;;;;;;5067135;28;20039;-68
2022/03/03 08:30:26;;;;;;;27.77;22.75;;;;;;;;;;5048884;28;20111;-68
2022/03/03 08:33:15;;;;;;;28.60;23.40;;;;;;;;;;5064371;28;20100;-68
2022/03/03 08:35:44;;;;;;;28.50;23.90;;;;;;;;;;5066998;28;20043;-68
2022/03/03 08:38:32;;;;;;;31.25;23.55;;;;;;;;;;5061271;28;20064;-68
2022/03/03 08:40:59;;;;;;;30.47;23.87;;;;;;;;;;5062549;28;20375;-68
2022/03/03 08:43:27;;;;;;;25.17;21.75;;;;;;;;;;5069714;28;20044;-68
2022/03/03 08:45:56;;;;;;;31.63;23.17;;;;;;;;;;5068667;28;20035;-69
2022/03/03 08:48:26;;;;;;;26.77;22.35;;;;;;;;;;5049104;28;20040;-68
2022/03/03 08:50:51;;;;;;;;;;;;;;;;;;5069877;28;20044;-68
2022/03/03 08:53:17;;;;;;;27.63;23.35;;;;;;;;;;5063526;28;19913;-69
2022/03/03 08:55:43;;;;;;;29.30;23.95;;;;;;;;;;5052051;28;20033;-69
2022/03/03 08:58:10;;;;;;;29.15;23.25;;;;;;;;;;5049951;28;20036;-69
2022/03/03 09:00:36;;;;;;;30.02;25.27;;;;;;;;;;5066215;28;20120;-68
2022/03/03 09:03:03;;;;;;;28.65;24.38;;;;;;;;;;5068506;28;20040;-69
2022/03/03 09:05:29;;;;;;;28.95;23.67;;;;;;;;;;5069384;28;20028;-69
2022/03/03 09:07:55;;;;;;;31.20;24.38;;;;;;;;;;5067873;28;20055;-69
2022/03/03 09:10:21;;;;;;;31.02;23.85;;;;;;;;;;5067495;28;20372;-68
2022/03/03 09:12:46;;;;;;;36.05;26.92;;;;;;;;;;5056313;28;20040;-68
2022/03/03 09:15:13;;;;;;;48.28;30.75;;;;;;;;;;5062136;28;20517;-68
2022/03/03 09:17:39;;;;;;;40.90;27.05;;;;;;;;;;5057050;28;20487;-68
2022/03/03 09:20:07;;;;;;;38.47;26.50;;;;;;;;;;5075000;28;20491;-68
2022/03/03 09:22:33;;;;;;;33.28;24.35;;;;;;;;;;5070383;28;20044;-68
2022/03/03 09:24:59;;;;;;;29.20;24.67;;;;;;;;;;5074652;28;20168;-68
2022/03/03 09:27:24;;;;;;;31.13;25.17;;;;;;;;;;5066639;28;20645;-68
2022/03/03 09:29:53;;;;;;;35.28;30.17;;;;;;;;;;5057272;28;20040;-68
2022/03/03 09:32:19;;;;;;;32.50;25.85;;;;;;;;;;5057766;28;20040;-68
2022/03/03 09:34:45;;;;;;;28.60;24.90;;;;;;;;;;5063225;28;20040;-68
2022/03/03 09:37:12;;;;;;;37.03;25.35;;;;;;;;;;5069301;28;20047;-68
2022/03/03 09:39:37;;;;;;;31.95;25.75;;;;;;;;;;5067043;28;20025;-68
2022/03/03 09:42:03;;;;;;;32.03;25.13;;;;;;;;;;5055598;28;20044;-68
2022/03/03 09:44:30;;;;;;;37.60;24.98;;;;;;;;;;5065050;28;20032;-68
2022/03/03 09:46:56;;;;;;;27.85;23.92;;;;;;;;;;5035820;28;20059;-67
2022/03/03 09:49:22;;;;;;;32.75;27.30;;;;;;;;;;4176732;28;10000959;-68
2022/03/03 09:51:48;;;;;;;30.02;24.63;;;;;;;;;;5068288;28;20033;-68
2022/03/03 09:54:14;;;;;;;31.00;24.98;;;;;;;;;;5065860;28;20133;-68
2022/03/03 09:56:40;;;;;;;29.70;25.15;;;;;;;;;;5075049;28;20047;-67
2022/03/03 09:59:07;;;;;;;31.55;24.50;;;;;;;;;;5075878;28;20040;-68
2022/03/03 10:01:33;;;;;;;30.52;25.35;;;;;;;;;;5069119;28;20028;-67
2022/03/03 10:04:24;;;;;;;33.70;25.50;;;;;;;;;;5071581;28;20037;-68
2022/03/03 10:06:50;;;;;;;32.15;25.40;;;;;;;;;;4188286;28;10000973;-67
2022/03/03 10:09:17;;;;;;;31.08;25.45;;;;;;;;;;5079270;28;20037;-67
2022/03/03 10:11:48;;;;;;;30.08;26.08;;;;;;;;;;5069595;28;20104;-68
2022/03/03 10:14:25;;;;;;;29.83;23.55;;;;;;;;;;5072481;28;20044;-68
2022/03/03 10:16:51;;;;;;;30.83;25.45;;;;;;;;;;5067350;28;20455;-68
2022/03/03 10:19:16;;;;;;;34.58;25.20;;;;;;;;;;5070139;28;20059;-68
2022/03/03 10:21:43;;;;;;;32.55;26.15;;;;;;;;;;5074919;28;20032;-67
2022/03/03 10:24:24;;;;;;;29.95;25.00;;;;;;;;;;5074300;28;20032;-69
2022/03/03 10:27:06;;;;;;;32.08;25.02;;;;;;;;;;5061337;28;20056;-68
2022/03/03 10:29:32;;;;;;;28.42;25.02;;;;;;;;;;5069358;28;20037;-69
2022/03/03 10:31:59;;;;;;;30.65;25.95;;;;;;;;;;5074013;28;20040;-69
2022/03/03 10:34:32;;;;;;;33.00;24.35;;;;;;;;;;5067279;28;20035;-69
2022/03/03 10:37:02;;;;;;;28.50;24.58;;;;;;;;;;5070543;28;20035;-69
2022/03/03 10:39:59;;;;;;;33.50;24.70;;;;;;;;;;5069607;28;20039;-69
2022/03/03 10:42:26;;;;;;;30.42;24.58;;;;;;;;;;5067072;28;20039;-69
2022/03/03 10:45:06;;;;;;;27.42;23.73;;;;;;;;;;5069879;28;20032;-68
2022/03/03 10:47:32;;;;;;;28.08;24.40;;;;;;;;;;5070427;28;20044;-69
2022/03/03 10:49:59;;;;;;;29.08;23.90;;;;;;;;;;5069690;28;20037;-68
2022/03/03 10:52:31;;;;;;;27.63;24.48;;;;;;;;;;5071185;28;20279;-68
2022/03/03 10:55:10;;;;;;;30.92;26.20;;;;;;;;;;5069935;28;20062;-68
2022/03/03 10:57:41;;;;;;;28.10;25.02;;;;;;;;;;5066494;28;20560;-68
2022/03/03 11:00:12;;;;;;;32.92;24.83;;;;;;;;;;5067469;28;20032;-68
2022/03/03 11:02:41;;;;;;;26.45;23.63;;;;;;;;;;5067076;28;20034;-68
2022/03/03 11:05:11;;;;;;;27.45;24.50;;;;;;;;;;5069831;28;20081;-68
2022/03/03 11:07:41;;;;;;;28.20;23.80;;;;;;;;;;5061806;28;20061;-68
2022/03/03 11:10:18;;;;;;;31.25;25.08;;;;;;;;;;5066300;28;20549;-68
2022/03/03 11:12:45;;;;;;;27.77;23.25;;;;;;;;;;5066473;28;20032;-68
2022/03/03 11:15:12;;;;;;;29.73;24.55;;;;;;;;;;5067313;28;20412;-68
2022/03/03 11:17:39;;;;;;;28.73;25.30;;;;;;;;;;5065397;28;20518;-68
2022/03/03 11:20:08;;;;;;;28.40;24.70;;;;;;;;;;5067790;28;20115;-68
2022/03/03 11:22:34;;;;;;;31.63;24.60;;;;;;;;;;5067286;28;20046;-68
2022/03/03 11:25:08;;;;;;;28.02;24.98;;;;;;;;;;5065357;28;20040;-68
2022/03/03 11:27:39;;;;;;;28.80;24.17;;;;;;;;;;5066410;28;20565;-68
2022/03/03 11:30:24;;;;;;;30.15;24.10;;;;;;;;;;5065065;28;20230;-68
2022/03/03 11:33:24;;;;;;;28.40;24.33;;;;;;;;;;5057313;28;20076;-68
2022/03/03 11:35:56;;;;;;;27.33;24.00;;;;;;;;;;5064444;28;20495;-68
2022/03/03 11:38:24;;;;;;;28.58;24.45;;;;;;;;;;5062807;28;20123;-68
2022/03/03 11:40:56;;;;;;;27.98;24.35;;;;;;;;;;5065059;28;20036;-68
2022/03/03 11:43:22;;;;;;;28.63;25.40;;;;;;;;;;5067817;28;20032;-68
2022/03/03 11:45:56;;;;;;;27.58;24.63;;;;;;;;;;5068558;28;20098;-68
2022/03/03 11:48:23;;;;;;;27.30;24.43;;;;;;;;;;5065192;28;20032;-68
2022/03/03 11:50:53;;;;;;;29.95;26.67;;;;;;;;;;5066794;28;20040;-68
2022/03/03 11:53:19;;;;;;;28.27;24.25;;;;;;;;;;5068306;28;20055;-68
2022/03/03 11:55:54;;;;;;;32.05;26.08;;;;;;;;;;5067123;28;20048;-68
2022/03/03 11:58:26;;;;;;;29.20;23.52;;;;;;;;;;5047241;28;20043;-68
2022/03/03 12:00:58;;;;;;;29.17;25.77;;;;;;;;;;5067068;28;20047;-68
2022/03/03 12:03:25;;;;;;;28.23;25.20;;;;;;;;;;5063761;28;20036;-68
2022/03/03 12:06:13;;;;;;;30.30;24.17;;;;;;;;;;5067743;28;20058;-68
2022/03/03 12:08:40;;;;;;;31.02;25.13;;;;;;;;;;5089695;28;20093;-68
2022/03/03 12:11:09;;;;;;;31.80;25.42;;;;;;;;;;5078149;28;20044;-68
2022/03/03 12:13:38;;;;;;;27.10;24.20;;;;;;;;;;5074087;28;20040;-68
2022/03/03 12:16:22;;;;;;;33.73;26.80;;;;;;;;;;5075761;28;20043;-68
2022/03/03 12:18:54;;;;;;;35.97;26.48;;;;;;;;;;5071468;28;20038;-67
2022/03/03 12:21:40;;;;;;;31.15;24.10;;;;;;;;;;5066440;28;20037;-68
2022/03/03 12:24:14;;;;;;;32.85;24.30;;;;;;;;;;5077693;28;20490;-68
2022/03/03 12:26:55;;;;;;;29.33;25.67;;;;;;;;;;5072274;28;20032;-68
2022/03/03 12:29:39;;;;;;;28.17;25.13;;;;;;;;;;5066521;28;20036;-68
2022/03/03 12:32:28;;;;;;;32.33;25.60;;;;;;;;;;5068877;28;20040;-68
2022/03/03 12:34:55;;;;;;;32.40;26.45;;;;;;;;;;5068818;28;20041;-68
2022/03/03 12:37:21;;;;;;;31.08;26.95;;;;;;;;;;5067522;28;20039;-68
2022/03/03 12:39:52;;;;;;;29.70;26.48;;;;;;;;;;5062075;28;20028;-68
2022/03/03 12:42:23;;;;;;;29.40;26.30;;;;;;;;;;5065633;28;20039;-68
2022/03/03 12:44:58;;;;;;;32.45;28.17;;;;;;;;;;5065356;28;20483;-68
2022/03/03 12:47:34;;;;;;;27.65;24.88;;;;;;;;;;5063021;28;20114;-68
2022/03/03 12:50:06;;;;;;;29.58;26.38;;;;;;;;;;5063704;28;20032;-67
2022/03/03 12:52:33;;;;;;;31.02;25.60;;;;;;;;;;5067113;28;20036;-68
2022/03/03 12:54:59;;;;;;;33.30;26.35;;;;;;;;;;5066634;28;20526;-67
2022/03/03 12:57:33;;;;;;;33.53;27.83;;;;;;;;;;5067109;28;20032;-68
2022/03/03 13:00:10;;;;;;;34.17;27.45;;;;;;;;;;5065831;28;20049;-68
2022/03/03 13:02:58;;;;;;;31.83;26.05;;;;;;;;;;5068070;28;20032;-68
2022/03/03 13:05:48;;;;;;;30.05;24.65;;;;;;;;;;5061953;28;20052;-68
2022/03/03 13:08:28;;;;;;;32.58;29.05;;;;;;;;;;5066226;28;20441;-68
2022/03/03 13:10:59;;;;;;;30.55;24.52;;;;;;;;;;5065368;28;20040;-68
2022/03/03 13:13:24;;;;;;;29.67;25.40;;;;;;;;;;5064043;28;20063;-68
2022/03/03 13:15:51;;;;;;;33.13;26.08;;;;;;;;;;5064093;28;20066;-69
2022/03/03 13:18:23;;;;;;;30.77;25.17;;;;;;;;;;5066604;28;20036;-68
2022/03/03 13:21:05;;;;;;;29.02;24.40;;;;;;;;;;5062727;28;20039;-69
2022/03/03 13:23:32;;;;;;;30.20;24.05;;;;;;;;;;5062198;28;20128;-69
2022/03/03 13:26:10;;;;;;;30.83;24.10;;;;;;;;;;5063412;28;20067;-69
2022/03/03 13:28:44;;;;;;;31.48;24.27;;;;;;;;;;5063513;28;20036;-68
2022/03/03 13:31:11;;;;;;;28.88;25.60;;;;;;;;;;5061441;28;20039;-68
2022/03/03 13:33:40;;;;;;;26.98;24.17;;;;;;;;;;5064064;28;20055;-69
2022/03/03 13:36:14;;;;;;;28.50;24.63;;;;;;;;;;5062146;28;20293;-69
2022/03/03 13:38:40;;;;;;;28.10;25.02;;;;;;;;;;5061236;28;20119;-68
2022/03/03 13:41:22;;;;;;;26.90;23.27;;;;;;;;;;5064206;28;20111;-68
2022/03/03 13:43:48;;;;;;;30.77;24.55;;;;;;;;;;5063972;28;20093;-68
2022/03/03 13:46:30;;;;;;;29.30;23.50;;;;;;;;;;5063783;28;20169;-68
2022/03/03 13:48:56;;;;;;;27.60;24.75;;;;;;;;;;5060993;28;20058;-68
2022/03/03 13:51:21;;;;;;;30.50;23.95;;;;;;;;;;5062949;28;20024;-68
2022/03/03 13:53:58;;;;;;;27.35;23.95;;;;;;;;;;5063529;28;20044;-68
2022/03/03 13:56:31;;;;;;;26.42;23.58;;;;;;;;;;5061418;28;20067;-68
2022/03/03 13:59:09;;;;;;;26.67;23.60;;;;;;;;;;5062973;28;20036;-68
2022/03/03 14:01:39;;;;;;;30.02;23.50;;;;;;;;;;5060721;28;20424;-68
2022/03/03 14:04:16;;;;;;;27.83;23.83;;;;;;;;;;5059900;28;20391;-68
2022/03/03 14:06:44;;;;;;;29.02;24.60;;;;;;;;;;5079415;28;20294;-68
2022/03/03 14:09:24;;;;;;;26.85;24.05;;;;;;;;;;5062366;28;20113;-68
2022/03/03 14:11:50;;;;;;;28.90;23.85;;;;;;;;;;5060733;28;20044;-68
2022/03/03 14:14:20;;;;;;;28.15;24.58;;;;;;;;;;5062633;28;20044;-68
2022/03/03 14:16:45;;;;;;;30.85;25.42;;;;;;;;;;5063452;28;20039;-68
2022/03/03 14:19:11;;;;;;;28.20;23.90;;;;;;;;;;5064553;28;20379;-68
2022/03/03 14:21:39;;;;;;;28.98;24.83;;;;;;;;;;5060886;28;20116;-68
2022/03/03 14:24:05;;;;;;;32.72;25.13;;;;;;;;;;5062309;28;20044;-67
2022/03/03 14:26:31;;;;;;;27.30;23.63;;;;;;;;;;5062938;28;20402;-67